Piper Inness — WDC3984 — position and weather

sailwx.info

Track history (hours):
 
Tides and Currents Weather Stations Pressure Air Temp Water Temp Dewpoint Dewpoint Depression Visibility Wind Speed Wind Dir Waves Ship Positions

Piper Inness

Owner: Foss Maritime Co, Seattle, WA. More information available from US FCC via Universal Licensing System and Coast Guard Vessel Documentation Center.

Last reported at 2018-May-24 21:00 UTC. Time now 2018-May-24 21:06 UTC.
Position N 32°57' W 117°43'.

; draft 2 m.

Type: Other ship. MMSI: 367017440.

Date/timePositionNaut miles runAvg speedWind from/ knotsBaromVisibWave heightAir tempDewpointWater temp
2018-May-24 21:00N 32°57' W 117°43'1 1.0
2018-May-24 20:24N 32°57' W 117°43'1 1.3
2018-May-24 19:59N 32°57' W 117°44'2 3.4
2018-May-24 19:30N 32°58' W 117°45'1 1.8
2018-May-24 19:00N 32°59' W 117°46'1 2.0
2018-May-24 18:30N 32°59' W 117°47'2 4.4
2018-May-24 18:00N 33°01' W 117°48'2 3.4
2018-May-24 17:30N 32°59' W 117°49'0 0.9
2018-May-24 17:00N 32°59' W 117°48'2 3.3
2018-May-24 16:30N 33°01' W 117°48'1 1.3
2018-May-24 16:00N 33°01' W 117°48'2 3.7
2018-May-24 15:30N 33°02' W 117°50'1 1.6
2018-May-24 15:00N 33°02' W 117°51'2 4.6
2018-May-24 14:30N 33°04' W 117°52'4 5.9
2018-May-24 13:54N 33°07' W 117°55'1 1.7
2018-May-24 13:29N 33°07' W 117°55'42 9.3
2018-May-24 09:00N 33°46' W 118°13'0 0.0
2018-May-24 08:30N 33°46' W 118°13'0 0.0
2018-May-24 08:00N 33°46' W 118°13'0 0.0
2018-May-24 07:30N 33°46' W 118°13'0 0.0
2018-May-24 07:00N 33°46' W 118°13'0 0.0
2018-May-24 06:30N 33°46' W 118°13'0 0.0
2018-May-24 06:00N 33°46' W 118°13'0 0.0
2018-May-24 05:30N 33°46' W 118°13'0 0.0
2018-May-24 05:00N 33°46' W 118°13'0 0.0
2018-May-24 04:30N 33°46' W 118°13'0 0.0
2018-May-24 04:00N 33°46' W 118°13'0 0.0
2018-May-24 03:30N 33°46' W 118°13'0 0.0
2018-May-24 03:00N 33°46' W 118°13'0 0.0
2018-May-24 02:30N 33°46' W 118°13'0 0.0
2018-May-24 02:00N 33°46' W 118°13'0 0.0
2018-May-24 01:30N 33°46' W 118°13'0 0.0
2018-May-24 01:00N 33°46' W 118°13'0 0.0
2018-May-24 00:30N 33°46' W 118°13'0 0.0
2018-May-24 00:00N 33°46' W 118°13'0 0.0
2018-May-23 23:30N 33°46' W 118°13'0 0.0
2018-May-23 23:00N 33°46' W 118°13'0 0.0
2018-May-23 22:30N 33°46' W 118°13'0 0.0
2018-May-23 22:00N 33°46' W 118°13'0 0.0
2018-May-23 21:30N 33°46' W 118°13'0 0.0
2018-May-23 21:00N 33°46' W 118°13'0 0.0
2018-May-23 20:30N 33°46' W 118°13'0 0.0
2018-May-23 20:00N 33°46' W 118°13'0 0.0
2018-May-23 19:30N 33°46' W 118°13'0 0.0
2018-May-23 19:00N 33°46' W 118°13'0 0.0
2018-May-23 18:30N 33°46' W 118°13'0 0.0
2018-May-23 18:00N 33°46' W 118°13'0 0.0
2018-May-23 17:30N 33°46' W 118°13'0 0.0
2018-May-23 17:00N 33°46' W 118°13'0 0.0
2018-May-23 16:30N 33°46' W 118°13'0 0.0
2018-May-23 16:00N 33°46' W 118°13'0 0.0
2018-May-23 15:30N 33°46' W 118°13'0 0.0
2018-May-23 15:00N 33°46' W 118°13'0 0.0
2018-May-23 14:30N 33°46' W 118°13'0 0.0
2018-May-23 13:59N 33°46' W 118°13'0 0.0
2018-May-23 13:30N 33°46' W 118°13'0 0.0
2018-May-23 13:00N 33°46' W 118°13'0 0.0
2018-May-23 12:30N 33°46' W 118°13'0 0.0
2018-May-23 12:00N 33°46' W 118°13'0 0.0
2018-May-23 11:30N 33°46' W 118°13'0 0.0
2018-May-23 11:00N 33°46' W 118°13'0 0.0
2018-May-23 10:30N 33°46' W 118°13'0 0.0
2018-May-23 10:00N 33°46' W 118°13'0 0.0
2018-May-23 09:30N 33°46' W 118°13'0 0.0
2018-May-23 09:00N 33°46' W 118°13'0 0.0
2018-May-23 08:30N 33°46' W 118°13'0 0.0
2018-May-23 08:00N 33°46' W 118°13'0 0.0
2018-May-23 07:30N 33°46' W 118°13'0 0.0
2018-May-23 07:00N 33°46' W 118°13'0 0.0
2018-May-23 06:30N 33°46' W 118°13'0 0.0
2018-May-23 06:00N 33°46' W 118°13'0 0.0
2018-May-23 05:30N 33°46' W 118°13'0 0.0
2018-May-23 05:00N 33°46' W 118°13'0 0.0
2018-May-23 04:30N 33°46' W 118°13'0 0.0
2018-May-23 04:00N 33°46' W 118°13'0 0.0
2018-May-23 03:30N 33°46' W 118°13'0 0.0
2018-May-23 03:00N 33°46' W 118°13'0 0.0
2018-May-23 02:30N 33°46' W 118°13'0 0.0
2018-May-23 02:00N 33°46' W 118°13'0 0.0
2018-May-23 01:30N 33°46' W 118°13'0 0.0
2018-May-23 01:00N 33°46' W 118°13'0 0.0
2018-May-23 00:30N 33°46' W 118°13'0 0.0
2018-May-23 00:00N 33°46' W 118°13'0 0.0
2018-May-22 23:30N 33°46' W 118°13'0 0.0
2018-May-22 23:00N 33°46' W 118°13'0 0.0
2018-May-22 22:30N 33°46' W 118°13'0 0.0
2018-May-22 22:00N 33°46' W 118°13'0 0.0
2018-May-22 21:30N 33°46' W 118°13'0 0.0
2018-May-22 21:00N 33°46' W 118°13'0 0.0
2018-May-22 20:30N 33°46' W 118°13'0 0.0
2018-May-22 20:00N 33°46' W 118°13'0 0.0
2018-May-22 19:30N 33°46' W 118°13'0 0.0
2018-May-22 19:00N 33°46' W 118°13'0 0.0
2018-May-22 18:30N 33°46' W 118°13'0 0.0
2018-May-22 18:00N 33°46' W 118°13'0 0.0
2018-May-22 17:30N 33°46' W 118°13'0 0.0
2018-May-22 17:00N 33°46' W 118°13'0 0.0
2018-May-22 16:30N 33°46' W 118°13'1 1.3
2018-May-22 16:00N 33°46' W 118°13'0 0.0
2018-May-22 15:30N 33°46' W 118°13'4 7.8
2018-May-22 15:00N 33°42' W 118°11'916.9
2018-May-22 14:30N 33°35' W 118°07'3316.7
2018-May-22 12:32N 33°04' W 117°52'0 2.0
2018-May-22 12:30N 33°04' W 117°52'1 1.1
2018-May-22 11:50N 33°04' W 117°51'1 1.9
2018-May-22 11:27N 33°03' W 117°51'1 1.0
2018-May-22 10:46N 33°02' W 117°51'1 2.9
2018-May-22 10:30N 33°03' W 117°52'2 1.3
2018-May-22 08:58N 33°01' W 117°51'1 1.0
2018-May-22 07:28N 32°60' W 117°50'1 2.9
2018-May-22 06:59N 32°59' W 117°49'6 2.2
2018-May-22 04:10N 32°54' W 117°44'0 1.5
2018-May-22 04:00N 32°54' W 117°44'2 3.4
2018-May-22 03:30N 32°56' W 117°46'1 1.6
2018-May-22 03:00N 32°56' W 117°46'2 2.4
2018-May-22 02:09N 32°55' W 117°44'1 3.4
2018-May-22 02:00N 32°55' W 117°45'2 3.4
2018-May-22 01:29N 32°56' W 117°46'2 3.5
2018-May-22 01:00N 32°58' W 117°48'2 3.6
2018-May-22 00:30N 32°59' W 117°49'1 1.5
2018-May-22 00:00N 32°60' W 117°48'2 3.4
2018-May-21 23:30N 33°01' W 117°49'2 3.3
2018-May-21 23:00N 33°02' W 117°51'2 3.9
2018-May-21 22:30N 33°04' W 117°52'2 4.2
2018-May-21 22:00N 33°06' W 117°53'3 5.1
2018-May-21 21:28N 33°08' W 117°55'3 3.5
2018-May-21 20:35N 33°11' W 117°55'0 1.1
2018-May-21 20:27N 33°11' W 117°56'0 0.7
2018-May-21 19:57N 33°10' W 117°55'0 0.6
2018-May-21 19:29N 33°10' W 117°56'0 1.0
2018-May-21 19:00N 33°10' W 117°55'611.6
2018-May-21 18:28N 33°16' W 117°55'2215.5
2018-May-21 17:05N 33°35' W 118°07'117.1
2018-May-21 17:00N 33°36' W 118°07'816.6
2018-May-21 16:30N 33°44' W 118°11'3 5.5
2018-May-21 16:00N 33°46' W 118°13'1 1.3
2018-May-21 15:30N 33°46' W 118°13'0 0.9
2018-May-21 15:00N 33°45' W 118°13'712.7
2018-May-21 14:30N 33°39' W 118°15'1 0.5
2018-May-21 12:02N 33°38' W 118°15'115.4
2018-May-21 11:57N 33°39' W 118°14'512.1
2018-May-21 11:31N 33°44' W 118°13'2 4.0
2018-May-21 11:01N 33°46' W 118°13'0 0.0
2018-May-21 10:30N 33°46' W 118°13'0 0.0
2018-May-21 10:00N 33°46' W 118°13'0 0.0
2018-May-21 09:30N 33°46' W 118°13'0 0.0
2018-May-21 09:00N 33°46' W 118°13'0 0.0
2018-May-21 08:30N 33°46' W 118°13'0 0.0
2018-May-21 08:00N 33°46' W 118°13'0 0.0
2018-May-21 07:30N 33°46' W 118°13'0 0.0
2018-May-21 07:00N 33°46' W 118°13'0 0.0
2018-May-21 06:30N 33°46' W 118°13'0 0.0
2018-May-21 05:57N 33°46' W 118°13'0 0.0
2018-May-21 05:30N 33°46' W 118°13'0 0.0
2018-May-21 05:01N 33°46' W 118°13'0 0.0
2018-May-21 04:31N 33°46' W 118°13'0 0.0
2018-May-21 04:00N 33°46' W 118°13'0 0.0
2018-May-21 03:31N 33°46' W 118°13'0 0.0
2018-May-21 03:00N 33°46' W 118°13'0 0.0
2018-May-21 02:30N 33°46' W 118°13'0 0.0
2018-May-21 02:01N 33°46' W 118°13'0 0.0
2018-May-21 01:31N 33°46' W 118°13'0 0.0
2018-May-21 01:00N 33°46' W 118°13'0 0.0
2018-May-21 00:30N 33°46' W 118°13'0 0.0
2018-May-21 00:00N 33°46' W 118°13'0 0.0
2018-May-20 23:31N 33°46' W 118°13'0 0.0
2018-May-20 23:00N 33°46' W 118°13'0 0.0
2018-May-20 22:30N 33°46' W 118°13'0 0.0
2018-May-20 22:00N 33°46' W 118°13'0 0.0
2018-May-20 21:30N 33°46' W 118°13'0 0.0
2018-May-20 21:00N 33°46' W 118°13'0 0.0
2018-May-20 20:30N 33°46' W 118°13'0 0.0
2018-May-20 20:00N 33°46' W 118°13'0 0.0
2018-May-20 19:30N 33°46' W 118°13'0 0.0
2018-May-20 19:00N 33°46' W 118°13'0 0.0
2018-May-20 18:30N 33°46' W 118°13'0 0.0
2018-May-20 18:00N 33°46' W 118°13'0 0.0
2018-May-20 17:30N 33°46' W 118°13'0 0.0
2018-May-20 17:00N 33°46' W 118°13'0 0.0
2018-May-20 16:31N 33°46' W 118°13'0 0.0
2018-May-20 16:00N 33°46' W 118°13'0 0.0
2018-May-20 15:30N 33°46' W 118°13'0 0.0
2018-May-20 15:00N 33°46' W 118°13'0 0.0
2018-May-20 14:30N 33°46' W 118°13'0 0.0
2018-May-20 14:00N 33°46' W 118°13'0 0.0
2018-May-20 13:30N 33°46' W 118°13'0 0.0
2018-May-20 13:00N 33°46' W 118°13'0 0.0
2018-May-20 12:30N 33°46' W 118°13'0 0.0
2018-May-20 12:00N 33°46' W 118°13'0 0.0
2018-May-20 11:30N 33°46' W 118°13'0 0.0
2018-May-20 11:00N 33°46' W 118°13'0 0.0
2018-May-20 10:30N 33°46' W 118°13'0 0.0
2018-May-20 10:00N 33°46' W 118°13'0 0.0
2018-May-20 09:30N 33°46' W 118°13'0 0.0
2018-May-20 09:00N 33°46' W 118°13'0 0.0
2018-May-20 08:30N 33°46' W 118°13'0 0.0
2018-May-20 08:00N 33°46' W 118°13'0 0.0
2018-May-20 07:30N 33°46' W 118°13'0 0.0
2018-May-20 07:00N 33°46' W 118°13'0 0.0
2018-May-20 06:30N 33°46' W 118°13'0 0.0
2018-May-20 06:00N 33°46' W 118°13'0 0.0
2018-May-20 05:30N 33°46' W 118°13'0 0.0
2018-May-20 05:00N 33°46' W 118°13'0 0.0
2018-May-20 04:31N 33°46' W 118°13'0 0.0
2018-May-20 04:00N 33°46' W 118°13'0 0.0
2018-May-20 03:30N 33°46' W 118°13'0 0.0
2018-May-20 03:01N 33°46' W 118°13'0 0.0
2018-May-20 02:30N 33°46' W 118°13'0 0.0
2018-May-20 02:00N 33°46' W 118°13'0 0.0
2018-May-20 01:30N 33°46' W 118°13'0 0.0
2018-May-20 01:00N 33°46' W 118°13'0 0.0
2018-May-20 00:30N 33°46' W 118°13'0 0.0
2018-May-20 00:00N 33°46' W 118°13'0 0.0
2018-May-19 23:30N 33°46' W 118°13'0 0.0
2018-May-19 23:01N 33°46' W 118°13'0 0.0
2018-May-19 22:30N 33°46' W 118°13'0 0.0
2018-May-19 22:00N 33°46' W 118°13'0 0.0
2018-May-19 21:30N 33°46' W 118°13'0 0.0
2018-May-19 21:00N 33°46' W 118°13'0 0.0
2018-May-19 20:30N 33°46' W 118°13'0 0.0
2018-May-19 20:00N 33°46' W 118°13'0 0.0
2018-May-19 19:30N 33°46' W 118°13'0 0.0
2018-May-19 19:00N 33°46' W 118°13'0 0.0
2018-May-19 18:31N 33°46' W 118°13'0 0.0
2018-May-19 18:00N 33°46' W 118°13'0 0.0
2018-May-19 17:30N 33°46' W 118°13'0 0.5
2018-May-19 17:00N 33°46' W 118°13'4 7.6
2018-May-19 16:30N 33°43' W 118°15'1 2.3
2018-May-19 16:01N 33°44' W 118°16'0 0.0
2018-May-19 15:29N 33°44' W 118°16'0 0.0
2018-May-19 15:00N 33°44' W 118°16'2 3.9
2018-May-19 14:30N 33°43' W 118°14'3 6.7
2018-May-19 14:00N 33°46' W 118°13'0 0.5
2018-May-19 13:30N 33°46' W 118°13'0 0.0
2018-May-19 13:00N 33°46' W 118°13'0 0.0
2018-May-19 12:30N 33°46' W 118°13'0 0.0
2018-May-19 12:00N 33°46' W 118°13'0 0.0
2018-May-19 11:30N 33°46' W 118°13'0 0.0
2018-May-19 11:00N 33°46' W 118°13'0 0.0
2018-May-19 10:30N 33°46' W 118°13'0 0.0
2018-May-19 10:00N 33°46' W 118°13'0 0.0
2018-May-19 09:30N 33°46' W 118°13'0 0.0
2018-May-19 09:00N 33°46' W 118°13'0 0.0
2018-May-19 08:30N 33°46' W 118°13'0 0.0
2018-May-19 08:00N 33°46' W 118°13'0 0.0
2018-May-19 07:30N 33°46' W 118°13'0 0.0
2018-May-19 07:00N 33°46' W 118°13'0 0.0
2018-May-19 06:30N 33°46' W 118°13'0 0.0
2018-May-19 06:00N 33°46' W 118°13'0 0.0
2018-May-19 05:30N 33°46' W 118°13'0 0.0
2018-May-19 05:00N 33°46' W 118°13'0 0.0
2018-May-19 04:30N 33°46' W 118°13'0 0.0
2018-May-19 04:00N 33°46' W 118°13'0 0.0
2018-May-19 03:30N 33°46' W 118°13'0 0.0
2018-May-19 03:00N 33°46' W 118°13'0 0.0
2018-May-19 02:30N 33°46' W 118°13'0 0.0
2018-May-19 02:00N 33°46' W 118°13'0 0.0
2018-May-19 01:30N 33°46' W 118°13'0 0.0
2018-May-19 01:00N 33°46' W 118°13'0 0.0
2018-May-19 00:30N 33°46' W 118°13'0 0.0
2018-May-19 00:00N 33°46' W 118°13'0 0.0
2018-May-18 23:30N 33°46' W 118°13'0 0.0
2018-May-18 23:00N 33°46' W 118°13'0 0.0
2018-May-18 22:30N 33°46' W 118°13'1 1.3
2018-May-18 22:01N 33°46' W 118°13'0 0.0
2018-May-18 21:30N 33°46' W 118°13'0 0.0
2018-May-18 21:01N 33°46' W 118°13'0 0.5
2018-May-18 20:31N 33°46' W 118°13'1 1.1
2018-May-18 20:01N 33°46' W 118°13'0 0.0
2018-May-18 19:30N 33°46' W 118°13'0 0.0
2018-May-18 19:01N 33°46' W 118°13'0 0.0
2018-May-18 18:30N 33°46' W 118°13'0 0.0
2018-May-18 18:00N 33°46' W 118°13'0 0.0
2018-May-18 17:30N 33°46' W 118°13'0 0.0
2018-May-18 17:00N 33°46' W 118°13'0 0.0
2018-May-18 16:30N 33°46' W 118°13'0 0.0
2018-May-18 16:00N 33°46' W 118°13'0 0.0
2018-May-18 15:30N 33°46' W 118°13'0 0.0
2018-May-18 15:00N 33°46' W 118°13'0 0.0
2018-May-18 14:30N 33°46' W 118°13'0 0.0
2018-May-18 14:00N 33°46' W 118°13'0 0.0
2018-May-18 13:30N 33°46' W 118°13'0 0.0
2018-May-18 13:00N 33°46' W 118°13'0 0.0
2018-May-18 12:30N 33°46' W 118°13'0 0.0
2018-May-18 12:00N 33°46' W 118°13'0 0.0
2018-May-18 11:30N 33°46' W 118°13'0 0.0
2018-May-18 11:00N 33°46' W 118°13'0 0.0
2018-May-18 10:30N 33°46' W 118°13'0 0.0
2018-May-18 10:00N 33°46' W 118°13'0 0.0
2018-May-18 09:30N 33°46' W 118°13'0 0.0
2018-May-18 09:00N 33°46' W 118°13'0 0.0
2018-May-18 08:30N 33°46' W 118°13'0 0.0
2018-May-18 08:00N 33°46' W 118°13'0 0.0
2018-May-18 07:30N 33°46' W 118°13'0 0.0
2018-May-18 07:00N 33°46' W 118°13'0 0.0
2018-May-18 06:30N 33°46' W 118°13'0 0.0
2018-May-18 06:00N 33°46' W 118°13'0 0.0
2018-May-18 05:30N 33°46' W 118°13'1 1.4
2018-May-18 05:01N 33°46' W 118°13'612.3
2018-May-18 04:30N 33°41' W 118°09'4216.9
2018-May-18 02:00N 33°02' W 117°49'1 1.7
2018-May-18 01:28N 33°01' W 117°50'1 1.6
2018-May-18 01:00N 33°01' W 117°50'1 2.1
2018-May-18 00:29N 32°60' W 117°50'3 7.1
2018-May-18 00:00N 33°01' W 117°46'1 1.4
2018-May-17 23:30N 33°01' W 117°47'1 1.7
2018-May-17 23:00N 33°02' W 117°48'1 1.2
2018-May-17 22:30N 33°01' W 117°49'1 1.1
2018-May-17 22:00N 33°01' W 117°49'1 1.7
2018-May-17 21:30N 33°02' W 117°48'1 0.8
2018-May-17 20:46N 33°02' W 117°49'0 1.4
2018-May-17 20:30N 33°02' W 117°49'1 1.0
2018-May-17 20:00N 33°02' W 117°49'2 3.2
2018-May-17 19:30N 33°03' W 117°50'1 1.3
2018-May-17 19:00N 33°03' W 117°50'1 2.7
2018-May-17 18:30N 33°02' W 117°48'2 3.2
2018-May-17 18:00N 33°01' W 117°47'1 1.3
2018-May-17 17:30N 33°01' W 117°48'2 3.1
2018-May-17 16:59N 33°01' W 117°50'2 3.2
2018-May-17 16:30N 32°59' W 117°48'2 3.1
2018-May-17 16:00N 32°58' W 117°47'1 1.2
2018-May-17 15:30N 32°58' W 117°48'6 1.7
2018-May-17 12:09N 32°53' W 117°46'1 1.2
2018-May-17 11:01N 32°51' W 117°46'0 2.6
2018-May-17 11:00N 32°51' W 117°46'4 1.6
2018-May-17 08:46N 32°49' W 117°43'1 3.3
2018-May-17 08:30N 32°49' W 117°44'2 3.3
2018-May-17 08:00N 32°51' W 117°44'2 3.2
2018-May-17 07:29N 32°52' W 117°45'2 2.7
2018-May-17 06:54N 32°52' W 117°44'1 3.5
2018-May-17 06:30N 32°53' W 117°45'2 3.5
2018-May-17 06:00N 32°54' W 117°46'2 3.5
2018-May-17 05:29N 32°56' W 117°47'1 2.1
2018-May-17 05:00N 32°57' W 117°48'1 2.4
2018-May-17 04:30N 32°57' W 117°46'2 4.4
2018-May-17 04:00N 32°59' W 117°48'3 5.2
2018-May-17 03:29N 33°01' W 117°50'3 5.6
2018-May-17 03:00N 33°03' W 117°52'3 5.3
2018-May-17 02:30N 33°06' W 117°53'2 3.7
2018-May-17 02:00N 33°07' W 117°55'2 3.8
2018-May-17 01:30N 33°08' W 117°56'4 7.6
2018-May-17 00:58N 33°12' W 117°59'2612.9
2018-May-16 22:57N 33°37' W 118°08'816.9
2018-May-16 22:30N 33°44' W 118°11'3 5.8
2018-May-16 22:00N 33°46' W 118°13'0 0.0
2018-May-16 21:30N 33°46' W 118°13'0 0.0
2018-May-16 21:01N 33°46' W 118°13'0 0.0
2018-May-16 20:30N 33°46' W 118°13'0 0.0
2018-May-16 20:00N 33°46' W 118°13'0 0.0
2018-May-16 19:30N 33°46' W 118°13'0 0.0
2018-May-16 19:00N 33°46' W 118°13'0 0.0
2018-May-16 18:30N 33°46' W 118°13'0 0.0
2018-May-16 18:00N 33°46' W 118°13'0 0.0
2018-May-16 17:30N 33°46' W 118°13'0 0.0
2018-May-16 17:00N 33°46' W 118°13'0 0.0
2018-May-16 16:30N 33°46' W 118°13'0 0.0
2018-May-16 16:00N 33°46' W 118°13'0 0.0
2018-May-16 15:30N 33°46' W 118°13'0 0.0
2018-May-16 15:00N 33°46' W 118°13'0 0.0
2018-May-16 14:30N 33°46' W 118°13'0 0.0
2018-May-16 14:00N 33°46' W 118°13'0 0.0
2018-May-16 13:30N 33°46' W 118°13'0 0.0
2018-May-16 13:00N 33°46' W 118°13'0 0.0
2018-May-16 12:30N 33°46' W 118°13'0 0.0
2018-May-16 12:00N 33°46' W 118°13'0 0.0
2018-May-16 11:30N 33°46' W 118°13'0 0.0
2018-May-16 11:00N 33°46' W 118°13'0 0.0
2018-May-16 10:30N 33°46' W 118°13'0 0.0
2018-May-16 10:00N 33°46' W 118°13'0 0.0
2018-May-16 09:30N 33°46' W 118°13'0 0.0
2018-May-16 09:00N 33°46' W 118°13'0 0.0
2018-May-16 08:30N 33°46' W 118°13'0 0.0
2018-May-16 08:00N 33°46' W 118°13'0 0.0
2018-May-16 07:30N 33°46' W 118°13'0 0.0
2018-May-16 07:00N 33°46' W 118°13'0 0.0
2018-May-16 06:30N 33°46' W 118°13'0 0.0
2018-May-16 06:00N 33°46' W 118°13'0 0.0
2018-May-16 05:30N 33°46' W 118°13'0 0.0
2018-May-16 05:00N 33°46' W 118°13'0 0.0
2018-May-16 04:30N 33°46' W 118°13'0 0.0
2018-May-16 04:00N 33°46' W 118°13'0 0.0
2018-May-16 03:30N 33°46' W 118°13'0 0.0
2018-May-16 03:00N 33°46' W 118°13'0 0.0
2018-May-16 02:30N 33°46' W 118°13'0 0.0
2018-May-16 02:00N 33°46' W 118°13'0 0.0
2018-May-16 01:30N 33°46' W 118°13'0 0.0
2018-May-16 01:00N 33°46' W 118°13'0 0.0
2018-May-16 00:30N 33°46' W 118°13'0 0.0
2018-May-16 00:00N 33°46' W 118°13'0 0.0
2018-May-15 23:30N 33°46' W 118°13'0 0.0
2018-May-15 23:00N 33°46' W 118°13'0 0.0
2018-May-15 22:30N 33°46' W 118°13'0 0.0
2018-May-15 22:00N 33°46' W 118°13'0 0.0
2018-May-15 21:30N 33°46' W 118°13'0 0.0
2018-May-15 21:00N 33°46' W 118°13'0 0.0
2018-May-15 20:30N 33°46' W 118°13'0 0.0
2018-May-15 20:00N 33°46' W 118°13'0 0.0
2018-May-15 19:30N 33°46' W 118°13'0 0.0
2018-May-15 19:00N 33°46' W 118°13'0 0.0
2018-May-15 18:30N 33°46' W 118°13'0 0.0
2018-May-15 18:00N 33°46' W 118°13'0 0.0
2018-May-15 17:30N 33°46' W 118°13'0 0.0
2018-May-15 17:00N 33°46' W 118°13'0 0.0
2018-May-15 16:30N 33°46' W 118°13'0 0.0
2018-May-15 16:00N 33°46' W 118°13'0 0.0
2018-May-15 15:30N 33°46' W 118°13'0 0.0
2018-May-15 15:00N 33°46' W 118°13'0 0.0
2018-May-15 14:30N 33°46' W 118°13'0 0.0
2018-May-15 14:00N 33°46' W 118°13'0 0.0
2018-May-15 13:30N 33°46' W 118°13'0 0.0
2018-May-15 13:00N 33°46' W 118°13'0 0.0
2018-May-15 12:30N 33°46' W 118°13'0 0.0
2018-May-15 12:00N 33°46' W 118°13'0 0.0
2018-May-15 11:29N 33°46' W 118°13'0 0.0
2018-May-15 11:00N 33°46' W 118°13'0 0.0
2018-May-15 10:30N 33°46' W 118°13'0 0.0
2018-May-15 10:00N 33°46' W 118°13'0 0.0
2018-May-15 09:30N 33°46' W 118°13'0 0.0
2018-May-15 09:00N 33°46' W 118°13'0 0.0
2018-May-15 08:30N 33°46' W 118°13'0 0.0
2018-May-15 08:00N 33°46' W 118°13'0 0.0
2018-May-15 07:30N 33°46' W 118°13'0 0.0
2018-May-15 07:00N 33°46' W 118°13'0 0.0
2018-May-15 06:30N 33°46' W 118°13'0 0.0
2018-May-15 05:59N 33°46' W 118°13'0 0.0
2018-May-15 05:30N 33°46' W 118°13'0 0.0
2018-May-15 05:00N 33°46' W 118°13'0 0.0
2018-May-15 04:19N 33°46' W 118°13'0 0.0
2018-May-15 03:53N 33°46' W 118°13'0 0.0
2018-May-15 03:30N 33°46' W 118°13'0 0.0
2018-May-15 02:54N 33°46' W 118°13'0 0.0
2018-May-15 02:30N 33°46' W 118°13'0 0.0
2018-May-15 02:00N 33°46' W 118°13'0 0.0
2018-May-15 01:30N 33°46' W 118°13'0 0.0
2018-May-15 01:00N 33°46' W 118°13'0 0.0
2018-May-15 00:30N 33°46' W 118°13'0 0.0
2018-May-15 00:00N 33°46' W 118°13'0 0.0
2018-May-14 23:30N 33°46' W 118°13'0 0.0
2018-May-14 23:00N 33°46' W 118°13'0 0.0
2018-May-14 22:30N 33°46' W 118°13'0 0.0
2018-May-14 22:00N 33°46' W 118°13'0 0.0
2018-May-14 21:30N 33°46' W 118°13'0 0.0
2018-May-14 21:00N 33°46' W 118°13'  
Track history (hours):
 
Tides and Currents Weather Stations Pressure Air Temp Water Temp Dewpoint Dewpoint Depression Visibility Wind Speed Wind Dir Waves Ship Positions

Piper Inness

Owner: Foss Maritime Co, Seattle, WA. More information available from US FCC via Universal Licensing System and Coast Guard Vessel Documentation Center.

Last reported at 2018-May-24 21:00 UTC. Time now 2018-May-24 21:06 UTC.
Position N 32°57' W 117°43'.

; draft 2 m.

Type: Other ship. MMSI: 367017440.

Date/timePositionNaut miles runAvg speedWind from/ knotsBaromVisibWave heightAir tempDewpointWater temp
2018-May-24 21:00N 32°57' W 117°43'1 1.0
2018-May-24 20:24N 32°57' W 117°43'1 1.3
2018-May-24 19:59N 32°57' W 117°44'2 3.4
2018-May-24 19:30N 32°58' W 117°45'1 1.8
2018-May-24 19:00N 32°59' W 117°46'1 2.0
2018-May-24 18:30N 32°59' W 117°47'2 4.4
2018-May-24 18:00N 33°01' W 117°48'2 3.4
2018-May-24 17:30N 32°59' W 117°49'0 0.9
2018-May-24 17:00N 32°59' W 117°48'2 3.3
2018-May-24 16:30N 33°01' W 117°48'1 1.3
2018-May-24 16:00N 33°01' W 117°48'2 3.7
2018-May-24 15:30N 33°02' W 117°50'1 1.6
2018-May-24 15:00N 33°02' W 117°51'2 4.6
2018-May-24 14:30N 33°04' W 117°52'4 5.9
2018-May-24 13:54N 33°07' W 117°55'1 1.7
2018-May-24 13:29N 33°07' W 117°55'42 9.3
2018-May-24 09:00N 33°46' W 118°13'0 0.0
2018-May-24 08:30N 33°46' W 118°13'0 0.0
2018-May-24 08:00N 33°46' W 118°13'0 0.0
2018-May-24 07:30N 33°46' W 118°13'0 0.0
2018-May-24 07:00N 33°46' W 118°13'0 0.0
2018-May-24 06:30N 33°46' W 118°13'0 0.0
2018-May-24 06:00N 33°46' W 118°13'0 0.0
2018-May-24 05:30N 33°46' W 118°13'0 0.0
2018-May-24 05:00N 33°46' W 118°13'0 0.0
2018-May-24 04:30N 33°46' W 118°13'0 0.0
2018-May-24 04:00N 33°46' W 118°13'0 0.0
2018-May-24 03:30N 33°46' W 118°13'0 0.0
2018-May-24 03:00N 33°46' W 118°13'0 0.0
2018-May-24 02:30N 33°46' W 118°13'0 0.0
2018-May-24 02:00N 33°46' W 118°13'0 0.0
2018-May-24 01:30N 33°46' W 118°13'0 0.0
2018-May-24 01:00N 33°46' W 118°13'0 0.0
2018-May-24 00:30N 33°46' W 118°13'0 0.0
2018-May-24 00:00N 33°46' W 118°13'0 0.0
2018-May-23 23:30N 33°46' W 118°13'0 0.0
2018-May-23 23:00N 33°46' W 118°13'0 0.0
2018-May-23 22:30N 33°46' W 118°13'0 0.0
2018-May-23 22:00N 33°46' W 118°13'0 0.0
2018-May-23 21:30N 33°46' W 118°13'0 0.0
2018-May-23 21:00N 33°46' W 118°13'0 0.0
2018-May-23 20:30N 33°46' W 118°13'0 0.0
2018-May-23 20:00N 33°46' W 118°13'0 0.0
2018-May-23 19:30N 33°46' W 118°13'0 0.0
2018-May-23 19:00N 33°46' W 118°13'0 0.0
2018-May-23 18:30N 33°46' W 118°13'0 0.0
2018-May-23 18:00N 33°46' W 118°13'0 0.0
2018-May-23 17:30N 33°46' W 118°13'0 0.0
2018-May-23 17:00N 33°46' W 118°13'0 0.0
2018-May-23 16:30N 33°46' W 118°13'0 0.0
2018-May-23 16:00N 33°46' W 118°13'0 0.0
2018-May-23 15:30N 33°46' W 118°13'0 0.0
2018-May-23 15:00N 33°46' W 118°13'0 0.0
2018-May-23 14:30N 33°46' W 118°13'0 0.0
2018-May-23 13:59N 33°46' W 118°13'0 0.0
2018-May-23 13:30N 33°46' W 118°13'0 0.0
2018-May-23 13:00N 33°46' W 118°13'0 0.0
2018-May-23 12:30N 33°46' W 118°13'0 0.0
2018-May-23 12:00N 33°46' W 118°13'0 0.0
2018-May-23 11:30N 33°46' W 118°13'0 0.0
2018-May-23 11:00N 33°46' W 118°13'0 0.0
2018-May-23 10:30N 33°46' W 118°13'0 0.0
2018-May-23 10:00N 33°46' W 118°13'0 0.0
2018-May-23 09:30N 33°46' W 118°13'0 0.0
2018-May-23 09:00N 33°46' W 118°13'0 0.0
2018-May-23 08:30N 33°46' W 118°13'0 0.0
2018-May-23 08:00N 33°46' W 118°13'0 0.0
2018-May-23 07:30N 33°46' W 118°13'0 0.0
2018-May-23 07:00N 33°46' W 118°13'0 0.0
2018-May-23 06:30N 33°46' W 118°13'0 0.0
2018-May-23 06:00N 33°46' W 118°13'0 0.0
2018-May-23 05:30N 33°46' W 118°13'0 0.0
2018-May-23 05:00N 33°46' W 118°13'0 0.0
2018-May-23 04:30N 33°46' W 118°13'0 0.0
2018-May-23 04:00N 33°46' W 118°13'0 0.0
2018-May-23 03:30N 33°46' W 118°13'0 0.0
2018-May-23 03:00N 33°46' W 118°13'0 0.0
2018-May-23 02:30N 33°46' W 118°13'0 0.0
2018-May-23 02:00N 33°46' W 118°13'0 0.0
2018-May-23 01:30N 33°46' W 118°13'0 0.0
2018-May-23 01:00N 33°46' W 118°13'0 0.0
2018-May-23 00:30N 33°46' W 118°13'0 0.0
2018-May-23 00:00N 33°46' W 118°13'0 0.0
2018-May-22 23:30N 33°46' W 118°13'0 0.0
2018-May-22 23:00N 33°46' W 118°13'0 0.0
2018-May-22 22:30N 33°46' W 118°13'0 0.0
2018-May-22 22:00N 33°46' W 118°13'0 0.0
2018-May-22 21:30N 33°46' W 118°13'0 0.0
2018-May-22 21:00N 33°46' W 118°13'0 0.0
2018-May-22 20:30N 33°46' W 118°13'0 0.0
2018-May-22 20:00N 33°46' W 118°13'0 0.0
2018-May-22 19:30N 33°46' W 118°13'0 0.0
2018-May-22 19:00N 33°46' W 118°13'0 0.0
2018-May-22 18:30N 33°46' W 118°13'0 0.0
2018-May-22 18:00N 33°46' W 118°13'0 0.0
2018-May-22 17:30N 33°46' W 118°13'0 0.0
2018-May-22 17:00N 33°46' W 118°13'0 0.0
2018-May-22 16:30N 33°46' W 118°13'1 1.3
2018-May-22 16:00N 33°46' W 118°13'0 0.0
2018-May-22 15:30N 33°46' W 118°13'4 7.8
2018-May-22 15:00N 33°42' W 118°11'916.9
2018-May-22 14:30N 33°35' W 118°07'3316.7
2018-May-22 12:32N 33°04' W 117°52'0 2.0
2018-May-22 12:30N 33°04' W 117°52'1 1.1
2018-May-22 11:50N 33°04' W 117°51'1 1.9
2018-May-22 11:27N 33°03' W 117°51'1 1.0
2018-May-22 10:46N 33°02' W 117°51'1 2.9
2018-May-22 10:30N 33°03' W 117°52'2 1.3
2018-May-22 08:58N 33°01' W 117°51'1 1.0
2018-May-22 07:28N 32°60' W 117°50'1 2.9
2018-May-22 06:59N 32°59' W 117°49'6 2.2
2018-May-22 04:10N 32°54' W 117°44'0 1.5
2018-May-22 04:00N 32°54' W 117°44'2 3.4
2018-May-22 03:30N 32°56' W 117°46'1 1.6
2018-May-22 03:00N 32°56' W 117°46'2 2.4
2018-May-22 02:09N 32°55' W 117°44'1 3.4
2018-May-22 02:00N 32°55' W 117°45'2 3.4
2018-May-22 01:29N 32°56' W 117°46'2 3.5
2018-May-22 01:00N 32°58' W 117°48'2 3.6
2018-May-22 00:30N 32°59' W 117°49'1 1.5
2018-May-22 00:00N 32°60' W 117°48'2 3.4
2018-May-21 23:30N 33°01' W 117°49'2 3.3
2018-May-21 23:00N 33°02' W 117°51'2 3.9
2018-May-21 22:30N 33°04' W 117°52'2 4.2
2018-May-21 22:00N 33°06' W 117°53'3 5.1
2018-May-21 21:28N 33°08' W 117°55'3 3.5
2018-May-21 20:35N 33°11' W 117°55'0 1.1
2018-May-21 20:27N 33°11' W 117°56'0 0.7
2018-May-21 19:57N 33°10' W 117°55'0 0.6
2018-May-21 19:29N 33°10' W 117°56'0 1.0
2018-May-21 19:00N 33°10' W 117°55'611.6
2018-May-21 18:28N 33°16' W 117°55'2215.5
2018-May-21 17:05N 33°35' W 118°07'117.1
2018-May-21 17:00N 33°36' W 118°07'816.6
2018-May-21 16:30N 33°44' W 118°11'3 5.5
2018-May-21 16:00N 33°46' W 118°13'1 1.3
2018-May-21 15:30N 33°46' W 118°13'0 0.9
2018-May-21 15:00N 33°45' W 118°13'712.7
2018-May-21 14:30N 33°39' W 118°15'1 0.5
2018-May-21 12:02N 33°38' W 118°15'115.4
2018-May-21 11:57N 33°39' W 118°14'512.1
2018-May-21 11:31N 33°44' W 118°13'2 4.0
2018-May-21 11:01N 33°46' W 118°13'0 0.0
2018-May-21 10:30N 33°46' W 118°13'0 0.0
2018-May-21 10:00N 33°46' W 118°13'0 0.0
2018-May-21 09:30N 33°46' W 118°13'0 0.0
2018-May-21 09:00N 33°46' W 118°13'0 0.0
2018-May-21 08:30N 33°46' W 118°13'0 0.0
2018-May-21 08:00N 33°46' W 118°13'0 0.0
2018-May-21 07:30N 33°46' W 118°13'0 0.0
2018-May-21 07:00N 33°46' W 118°13'0 0.0
2018-May-21 06:30N 33°46' W 118°13'0 0.0
2018-May-21 05:57N 33°46' W 118°13'0 0.0
2018-May-21 05:30N 33°46' W 118°13'0 0.0
2018-May-21 05:01N 33°46' W 118°13'0 0.0
2018-May-21 04:31N 33°46' W 118°13'0 0.0
2018-May-21 04:00N 33°46' W 118°13'0 0.0
2018-May-21 03:31N 33°46' W 118°13'0 0.0
2018-May-21 03:00N 33°46' W 118°13'0 0.0
2018-May-21 02:30N 33°46' W 118°13'0 0.0
2018-May-21 02:01N 33°46' W 118°13'0 0.0
2018-May-21 01:31N 33°46' W 118°13'0 0.0
2018-May-21 01:00N 33°46' W 118°13'0 0.0
2018-May-21 00:30N 33°46' W 118°13'0 0.0
2018-May-21 00:00N 33°46' W 118°13'0 0.0
2018-May-20 23:31N 33°46' W 118°13'0 0.0
2018-May-20 23:00N 33°46' W 118°13'0 0.0
2018-May-20 22:30N 33°46' W 118°13'0 0.0
2018-May-20 22:00N 33°46' W 118°13'0 0.0
2018-May-20 21:30N 33°46' W 118°13'0 0.0
2018-May-20 21:00N 33°46' W 118°13'0 0.0
2018-May-20 20:30N 33°46' W 118°13'0 0.0
2018-May-20 20:00N 33°46' W 118°13'0 0.0
2018-May-20 19:30N 33°46' W 118°13'0 0.0
2018-May-20 19:00N 33°46' W 118°13'0 0.0
2018-May-20 18:30N 33°46' W 118°13'0 0.0
2018-May-20 18:00N 33°46' W 118°13'0 0.0
2018-May-20 17:30N 33°46' W 118°13'0 0.0
2018-May-20 17:00N 33°46' W 118°13'0 0.0
2018-May-20 16:31N 33°46' W 118°13'0 0.0
2018-May-20 16:00N 33°46' W 118°13'0 0.0
2018-May-20 15:30N 33°46' W 118°13'0 0.0
2018-May-20 15:00N 33°46' W 118°13'0 0.0
2018-May-20 14:30N 33°46' W 118°13'0 0.0
2018-May-20 14:00N 33°46' W 118°13'0 0.0
2018-May-20 13:30N 33°46' W 118°13'0 0.0
2018-May-20 13:00N 33°46' W 118°13'0 0.0
2018-May-20 12:30N 33°46' W 118°13'0 0.0
2018-May-20 12:00N 33°46' W 118°13'0 0.0
2018-May-20 11:30N 33°46' W 118°13'0 0.0
2018-May-20 11:00N 33°46' W 118°13'0 0.0
2018-May-20 10:30N 33°46' W 118°13'0 0.0
2018-May-20 10:00N 33°46' W 118°13'0 0.0
2018-May-20 09:30N 33°46' W 118°13'0 0.0
2018-May-20 09:00N 33°46' W 118°13'0 0.0
2018-May-20 08:30N 33°46' W 118°13'0 0.0
2018-May-20 08:00N 33°46' W 118°13'0 0.0
2018-May-20 07:30N 33°46' W 118°13'0 0.0
2018-May-20 07:00N 33°46' W 118°13'0 0.0
2018-May-20 06:30N 33°46' W 118°13'0 0.0
2018-May-20 06:00N 33°46' W 118°13'0 0.0
2018-May-20 05:30N 33°46' W 118°13'0 0.0
2018-May-20 05:00N 33°46' W 118°13'0 0.0
2018-May-20 04:31N 33°46' W 118°13'0 0.0
2018-May-20 04:00N 33°46' W 118°13'0 0.0
2018-May-20 03:30N 33°46' W 118°13'0 0.0
2018-May-20 03:01N 33°46' W 118°13'0 0.0
2018-May-20 02:30N 33°46' W 118°13'0 0.0
2018-May-20 02:00N 33°46' W 118°13'0 0.0
2018-May-20 01:30N 33°46' W 118°13'0 0.0
2018-May-20 01:00N 33°46' W 118°13'0 0.0
2018-May-20 00:30N 33°46' W 118°13'0 0.0
2018-May-20 00:00N 33°46' W 118°13'0 0.0
2018-May-19 23:30N 33°46' W 118°13'0 0.0
2018-May-19 23:01N 33°46' W 118°13'0 0.0
2018-May-19 22:30N 33°46' W 118°13'0 0.0
2018-May-19 22:00N 33°46' W 118°13'0 0.0
2018-May-19 21:30N 33°46' W 118°13'0 0.0
2018-May-19 21:00N 33°46' W 118°13'0 0.0
2018-May-19 20:30N 33°46' W 118°13'0 0.0
2018-May-19 20:00N 33°46' W 118°13'0 0.0
2018-May-19 19:30N 33°46' W 118°13'0 0.0
2018-May-19 19:00N 33°46' W 118°13'0 0.0
2018-May-19 18:31N 33°46' W 118°13'0 0.0
2018-May-19 18:00N 33°46' W 118°13'0 0.0
2018-May-19 17:30N 33°46' W 118°13'0 0.5
2018-May-19 17:00N 33°46' W 118°13'4 7.6
2018-May-19 16:30N 33°43' W 118°15'1 2.3
2018-May-19 16:01N 33°44' W 118°16'0 0.0
2018-May-19 15:29N 33°44' W 118°16'0 0.0
2018-May-19 15:00N 33°44' W 118°16'2 3.9
2018-May-19 14:30N 33°43' W 118°14'3 6.7
2018-May-19 14:00N 33°46' W 118°13'0 0.5
2018-May-19 13:30N 33°46' W 118°13'0 0.0
2018-May-19 13:00N 33°46' W 118°13'0 0.0
2018-May-19 12:30N 33°46' W 118°13'0 0.0
2018-May-19 12:00N 33°46' W 118°13'0 0.0
2018-May-19 11:30N 33°46' W 118°13'0 0.0
2018-May-19 11:00N 33°46' W 118°13'0 0.0
2018-May-19 10:30N 33°46' W 118°13'0 0.0
2018-May-19 10:00N 33°46' W 118°13'0 0.0
2018-May-19 09:30N 33°46' W 118°13'0 0.0
2018-May-19 09:00N 33°46' W 118°13'0 0.0
2018-May-19 08:30N 33°46' W 118°13'0 0.0
2018-May-19 08:00N 33°46' W 118°13'0 0.0
2018-May-19 07:30N 33°46' W 118°13'0 0.0
2018-May-19 07:00N 33°46' W 118°13'0 0.0
2018-May-19 06:30N 33°46' W 118°13'0 0.0
2018-May-19 06:00N 33°46' W 118°13'0 0.0
2018-May-19 05:30N 33°46' W 118°13'0 0.0
2018-May-19 05:00N 33°46' W 118°13'0 0.0
2018-May-19 04:30N 33°46' W 118°13'0 0.0
2018-May-19 04:00N 33°46' W 118°13'0 0.0
2018-May-19 03:30N 33°46' W 118°13'0 0.0
2018-May-19 03:00N 33°46' W 118°13'0 0.0
2018-May-19 02:30N 33°46' W 118°13'0 0.0
2018-May-19 02:00N 33°46' W 118°13'0 0.0
2018-May-19 01:30N 33°46' W 118°13'0 0.0
2018-May-19 01:00N 33°46' W 118°13'0 0.0
2018-May-19 00:30N 33°46' W 118°13'0 0.0
2018-May-19 00:00N 33°46' W 118°13'0 0.0
2018-May-18 23:30N 33°46' W 118°13'0 0.0
2018-May-18 23:00N 33°46' W 118°13'0 0.0
2018-May-18 22:30N 33°46' W 118°13'1 1.3
2018-May-18 22:01N 33°46' W 118°13'0 0.0
2018-May-18 21:30N 33°46' W 118°13'0 0.0
2018-May-18 21:01N 33°46' W 118°13'0 0.5
2018-May-18 20:31N 33°46' W 118°13'1 1.1
2018-May-18 20:01N 33°46' W 118°13'0 0.0
2018-May-18 19:30N 33°46' W 118°13'0 0.0
2018-May-18 19:01N 33°46' W 118°13'0 0.0
2018-May-18 18:30N 33°46' W 118°13'0 0.0
2018-May-18 18:00N 33°46' W 118°13'0 0.0
2018-May-18 17:30N 33°46' W 118°13'0 0.0
2018-May-18 17:00N 33°46' W 118°13'0 0.0
2018-May-18 16:30N 33°46' W 118°13'0 0.0
2018-May-18 16:00N 33°46' W 118°13'0 0.0
2018-May-18 15:30N 33°46' W 118°13'0 0.0
2018-May-18 15:00N 33°46' W 118°13'0 0.0
2018-May-18 14:30N 33°46' W 118°13'0 0.0
2018-May-18 14:00N 33°46' W 118°13'0 0.0
2018-May-18 13:30N 33°46' W 118°13'0 0.0
2018-May-18 13:00N 33°46' W 118°13'0 0.0
2018-May-18 12:30N 33°46' W 118°13'0 0.0
2018-May-18 12:00N 33°46' W 118°13'0 0.0
2018-May-18 11:30N 33°46' W 118°13'0 0.0
2018-May-18 11:00N 33°46' W 118°13'0 0.0
2018-May-18 10:30N 33°46' W 118°13'0 0.0
2018-May-18 10:00N 33°46' W 118°13'0 0.0
2018-May-18 09:30N 33°46' W 118°13'0 0.0
2018-May-18 09:00N 33°46' W 118°13'0 0.0
2018-May-18 08:30N 33°46' W 118°13'0 0.0
2018-May-18 08:00N 33°46' W 118°13'0 0.0
2018-May-18 07:30N 33°46' W 118°13'0 0.0
2018-May-18 07:00N 33°46' W 118°13'0 0.0
2018-May-18 06:30N 33°46' W 118°13'0 0.0
2018-May-18 06:00N 33°46' W 118°13'0 0.0
2018-May-18 05:30N 33°46' W 118°13'1 1.4
2018-May-18 05:01N 33°46' W 118°13'612.3
2018-May-18 04:30N 33°41' W 118°09'4216.9
2018-May-18 02:00N 33°02' W 117°49'1 1.7
2018-May-18 01:28N 33°01' W 117°50'1 1.6
2018-May-18 01:00N 33°01' W 117°50'1 2.1
2018-May-18 00:29N 32°60' W 117°50'3 7.1
2018-May-18 00:00N 33°01' W 117°46'1 1.4
2018-May-17 23:30N 33°01' W 117°47'1 1.7
2018-May-17 23:00N 33°02' W 117°48'1 1.2
2018-May-17 22:30N 33°01' W 117°49'1 1.1
2018-May-17 22:00N 33°01' W 117°49'1 1.7
2018-May-17 21:30N 33°02' W 117°48'1 0.8
2018-May-17 20:46N 33°02' W 117°49'0 1.4
2018-May-17 20:30N 33°02' W 117°49'1 1.0
2018-May-17 20:00N 33°02' W 117°49'2 3.2
2018-May-17 19:30N 33°03' W 117°50'1 1.3
2018-May-17 19:00N 33°03' W 117°50'1 2.7
2018-May-17 18:30N 33°02' W 117°48'2 3.2
2018-May-17 18:00N 33°01' W 117°47'1 1.3
2018-May-17 17:30N 33°01' W 117°48'2 3.1
2018-May-17 16:59N 33°01' W 117°50'2 3.2
2018-May-17 16:30N 32°59' W 117°48'2 3.1
2018-May-17 16:00N 32°58' W 117°47'1 1.2
2018-May-17 15:30N 32°58' W 117°48'6 1.7
2018-May-17 12:09N 32°53' W 117°46'1 1.2
2018-May-17 11:01N 32°51' W 117°46'0 2.6
2018-May-17 11:00N 32°51' W 117°46'4 1.6
2018-May-17 08:46N 32°49' W 117°43'1 3.3
2018-May-17 08:30N 32°49' W 117°44'2 3.3
2018-May-17 08:00N 32°51' W 117°44'2 3.2
2018-May-17 07:29N 32°52' W 117°45'2 2.7
2018-May-17 06:54N 32°52' W 117°44'1 3.5
2018-May-17 06:30N 32°53' W 117°45'2 3.5
2018-May-17 06:00N 32°54' W 117°46'2 3.5
2018-May-17 05:29N 32°56' W 117°47'1 2.1
2018-May-17 05:00N 32°57' W 117°48'1 2.4
2018-May-17 04:30N 32°57' W 117°46'2 4.4
2018-May-17 04:00N 32°59' W 117°48'3 5.2
2018-May-17 03:29N 33°01' W 117°50'3 5.6
2018-May-17 03:00N 33°03' W 117°52'3 5.3
2018-May-17 02:30N 33°06' W 117°53'2 3.7
2018-May-17 02:00N 33°07' W 117°55'2 3.8
2018-May-17 01:30N 33°08' W 117°56'4 7.6
2018-May-17 00:58N 33°12' W 117°59'2612.9
2018-May-16 22:57N 33°37' W 118°08'816.9
2018-May-16 22:30N 33°44' W 118°11'3 5.8
2018-May-16 22:00N 33°46' W 118°13'0 0.0
2018-May-16 21:30N 33°46' W 118°13'0 0.0
2018-May-16 21:01N 33°46' W 118°13'0 0.0
2018-May-16 20:30N 33°46' W 118°13'0 0.0
2018-May-16 20:00N 33°46' W 118°13'0 0.0
2018-May-16 19:30N 33°46' W 118°13'0 0.0
2018-May-16 19:00N 33°46' W 118°13'0 0.0
2018-May-16 18:30N 33°46' W 118°13'0 0.0
2018-May-16 18:00N 33°46' W 118°13'0 0.0
2018-May-16 17:30N 33°46' W 118°13'0 0.0
2018-May-16 17:00N 33°46' W 118°13'0 0.0
2018-May-16 16:30N 33°46' W 118°13'0 0.0
2018-May-16 16:00N 33°46' W 118°13'0 0.0
2018-May-16 15:30N 33°46' W 118°13'0 0.0
2018-May-16 15:00N 33°46' W 118°13'0 0.0
2018-May-16 14:30N 33°46' W 118°13'0 0.0
2018-May-16 14:00N 33°46' W 118°13'0 0.0
2018-May-16 13:30N 33°46' W 118°13'0 0.0
2018-May-16 13:00N 33°46' W 118°13'0 0.0
2018-May-16 12:30N 33°46' W 118°13'0 0.0
2018-May-16 12:00N 33°46' W 118°13'0 0.0
2018-May-16 11:30N 33°46' W 118°13'0 0.0
2018-May-16 11:00N 33°46' W 118°13'0 0.0
2018-May-16 10:30N 33°46' W 118°13'0 0.0
2018-May-16 10:00N 33°46' W 118°13'0 0.0
2018-May-16 09:30N 33°46' W 118°13'0 0.0
2018-May-16 09:00N 33°46' W 118°13'0 0.0
2018-May-16 08:30N 33°46' W 118°13'0 0.0
2018-May-16 08:00N 33°46' W 118°13'0 0.0
2018-May-16 07:30N 33°46' W 118°13'0 0.0
2018-May-16 07:00N 33°46' W 118°13'0 0.0
2018-May-16 06:30N 33°46' W 118°13'0 0.0
2018-May-16 06:00N 33°46' W 118°13'0 0.0
2018-May-16 05:30N 33°46' W 118°13'0 0.0
2018-May-16 05:00N 33°46' W 118°13'0 0.0
2018-May-16 04:30N 33°46' W 118°13'0 0.0
2018-May-16 04:00N 33°46' W 118°13'0 0.0
2018-May-16 03:30N 33°46' W 118°13'0 0.0
2018-May-16 03:00N 33°46' W 118°13'0 0.0
2018-May-16 02:30N 33°46' W 118°13'0 0.0
2018-May-16 02:00N 33°46' W 118°13'0 0.0
2018-May-16 01:30N 33°46' W 118°13'0 0.0
2018-May-16 01:00N 33°46' W 118°13'0 0.0
2018-May-16 00:30N 33°46' W 118°13'0 0.0
2018-May-16 00:00N 33°46' W 118°13'0 0.0
2018-May-15 23:30N 33°46' W 118°13'0 0.0
2018-May-15 23:00N 33°46' W 118°13'0 0.0
2018-May-15 22:30N 33°46' W 118°13'0 0.0
2018-May-15 22:00N 33°46' W 118°13'0 0.0
2018-May-15 21:30N 33°46' W 118°13'0 0.0
2018-May-15 21:00N 33°46' W 118°13'0 0.0
2018-May-15 20:30N 33°46' W 118°13'0 0.0
2018-May-15 20:00N 33°46' W 118°13'0 0.0
2018-May-15 19:30N 33°46' W 118°13'0 0.0
2018-May-15 19:00N 33°46' W 118°13'0 0.0
2018-May-15 18:30N 33°46' W 118°13'0 0.0
2018-May-15 18:00N 33°46' W 118°13'0 0.0
2018-May-15 17:30N 33°46' W 118°13'0 0.0
2018-May-15 17:00N 33°46' W 118°13'0 0.0
2018-May-15 16:30N 33°46' W 118°13'0 0.0
2018-May-15 16:00N 33°46' W 118°13'0 0.0
2018-May-15 15:30N 33°46' W 118°13'0 0.0
2018-May-15 15:00N 33°46' W 118°13'0 0.0
2018-May-15 14:30N 33°46' W 118°13'0 0.0
2018-May-15 14:00N 33°46' W 118°13'0 0.0
2018-May-15 13:30N 33°46' W 118°13'0 0.0
2018-May-15 13:00N 33°46' W 118°13'0 0.0
2018-May-15 12:30N 33°46' W 118°13'0 0.0
2018-May-15 12:00N 33°46' W 118°13'0 0.0
2018-May-15 11:29N 33°46' W 118°13'0 0.0
2018-May-15 11:00N 33°46' W 118°13'0 0.0
2018-May-15 10:30N 33°46' W 118°13'0 0.0
2018-May-15 10:00N 33°46' W 118°13'0 0.0
2018-May-15 09:30N 33°46' W 118°13'0 0.0
2018-May-15 09:00N 33°46' W 118°13'0 0.0
2018-May-15 08:30N 33°46' W 118°13'0 0.0
2018-May-15 08:00N 33°46' W 118°13'0 0.0
2018-May-15 07:30N 33°46' W 118°13'0 0.0
2018-May-15 07:00N 33°46' W 118°13'0 0.0
2018-May-15 06:30N 33°46' W 118°13'0 0.0
2018-May-15 05:59N 33°46' W 118°13'0 0.0
2018-May-15 05:30N 33°46' W 118°13'0 0.0
2018-May-15 05:00N 33°46' W 118°13'0 0.0
2018-May-15 04:19N 33°46' W 118°13'0 0.0
2018-May-15 03:53N 33°46' W 118°13'0 0.0
2018-May-15 03:30N 33°46' W 118°13'0 0.0
2018-May-15 02:54N 33°46' W 118°13'0 0.0
2018-May-15 02:30N 33°46' W 118°13'0 0.0
2018-May-15 02:00N 33°46' W 118°13'0 0.0
2018-May-15 01:30N 33°46' W 118°13'0 0.0
2018-May-15 01:00N 33°46' W 118°13'0 0.0
2018-May-15 00:30N 33°46' W 118°13'0 0.0
2018-May-15 00:00N 33°46' W 118°13'0 0.0
2018-May-14 23:30N 33°46' W 118°13'0 0.0
2018-May-14 23:00N 33°46' W 118°13'0 0.0
2018-May-14 22:30N 33°46' W 118°13'0 0.0
2018-May-14 22:00N 33°46' W 118°13'0 0.0
2018-May-14 21:30N 33°46' W 118°13'0 0.0
2018-May-14 21:00N 33°46' W 118°13'  

Dump ship's entire track history